sensor_id;sensor_type;location;lat;lon;timestamp;pressure;altitude;pressure_sealevel;temperature;humidity
16613;BME280;8419;52.358;9.752;2023-05-10T00:01:22;100084.00;;;23.70;26.41
16613;BME280;8419;52.358;9.752;2023-05-10T00:04:07;100068.00;;;23.73;26.35
16613;BME280;8419;52.358;9.752;2023-05-10T00:06:53;100071.00;;;23.79;26.32
16613;BME280;8419;52.358;9.752;2023-05-10T00:09:39;100067.00;;;23.80;26.32
16613;BME280;8419;52.358;9.752;2023-05-10T00:12:25;100062.00;;;23.76;26.33
16613;BME280;8419;52.358;9.752;2023-05-10T00:15:12;100053.00;;;23.78;26.35
16613;BME280;8419;52.358;9.752;2023-05-10T00:17:57;100056.00;;;23.74;26.41
16613;BME280;8419;52.358;9.752;2023-05-10T00:20:42;100050.00;;;23.74;26.44
16613;BME280;8419;52.358;9.752;2023-05-10T00:23:30;100052.00;;;23.72;26.46
16613;BME280;8419;52.358;9.752;2023-05-10T00:26:17;100055.00;;;23.69;26.52
16613;BME280;8419;52.358;9.752;2023-05-10T00:29:02;100049.00;;;23.69;26.53
16613;BME280;8419;52.358;9.752;2023-05-10T00:31:48;100042.00;;;23.66;26.58
16613;BME280;8419;52.358;9.752;2023-05-10T00:34:33;100043.00;;;23.65;26.60
16613;BME280;8419;52.358;9.752;2023-05-10T00:37:19;100042.00;;;23.64;26.66
16613;BME280;8419;52.358;9.752;2023-05-10T00:40:07;100042.00;;;23.61;26.71
16613;BME280;8419;52.358;9.752;2023-05-10T00:42:52;100042.00;;;23.60;26.79
16613;BME280;8419;52.358;9.752;2023-05-10T00:45:40;100042.00;;;23.58;26.81
16613;BME280;8419;52.358;9.752;2023-05-10T00:48:26;100040.00;;;23.56;26.87
16613;BME280;8419;52.358;9.752;2023-05-10T00:51:14;100032.00;;;23.29;27.19
16613;BME280;8419;52.358;9.752;2023-05-10T00:54:00;100029.00;;;23.44;27.08
16613;BME280;8419;52.358;9.752;2023-05-10T00:56:45;100030.00;;;23.12;27.48
16613;BME280;8419;52.358;9.752;2023-05-10T00:59:34;100035.00;;;23.05;27.63
16613;BME280;8419;52.358;9.752;2023-05-10T01:02:19;100030.00;;;23.02;27.71
16613;BME280;8419;52.358;9.752;2023-05-10T01:05:07;100025.00;;;23.02;27.71
16613;BME280;8419;52.358;9.752;2023-05-10T01:07:52;100027.00;;;22.95;27.83
16613;BME280;8419;52.358;9.752;2023-05-10T01:10:38;100036.00;;;22.92;27.89
16613;BME280;8419;52.358;9.752;2023-05-10T01:13:30;100027.00;;;22.87;27.99
16613;BME280;8419;52.358;9.752;2023-05-10T01:16:17;100021.00;;;22.85;28.07
16613;BME280;8419;52.358;9.752;2023-05-10T01:19:04;100011.00;;;22.84;28.07
16613;BME280;8419;52.358;9.752;2023-05-10T01:22:00;100012.00;;;22.78;28.19
16613;BME280;8419;52.358;9.752;2023-05-10T01:25:11;100017.00;;;23.04;27.90
16613;BME280;8419;52.358;9.752;2023-05-10T01:31:22;100021.00;;;23.06;27.87
16613;BME280;8419;52.358;9.752;2023-05-10T01:34:16;100025.00;;;22.96;28.05
16613;BME280;8419;52.358;9.752;2023-05-10T01:37:09;100023.00;;;22.68;28.42
16613;BME280;8419;52.358;9.752;2023-05-10T01:40:05;100024.00;;;22.60;28.58
16613;BME280;8419;52.358;9.752;2023-05-10T01:42:55;100025.00;;;22.50;28.82
16613;BME280;8419;52.358;9.752;2023-05-10T01:45:54;100023.00;;;22.59;28.68
16613;BME280;8419;52.358;9.752;2023-05-10T01:48:48;100024.00;;;22.82;28.43
16613;BME280;8419;52.358;9.752;2023-05-10T01:51:39;100010.00;;;22.79;28.51
16613;BME280;8419;52.358;9.752;2023-05-10T01:54:28;100009.00;;;22.76;28.59
16613;BME280;8419;52.358;9.752;2023-05-10T01:57:16;100014.00;;;22.80;28.56
16613;BME280;8419;52.358;9.752;2023-05-10T02:00:05;100018.00;;;22.75;28.68
16613;BME280;8419;52.358;9.752;2023-05-10T02:02:53;100018.00;;;22.70;28.79
16613;BME280;8419;52.358;9.752;2023-05-10T02:05:40;100012.00;;;22.67;28.87
16613;BME280;8419;52.358;9.752;2023-05-10T02:08:27;100025.00;;;22.67;28.96
16613;BME280;8419;52.358;9.752;2023-05-10T02:11:13;100021.00;;;22.66;29.01
16613;BME280;8419;52.358;9.752;2023-05-10T02:14:01;100022.00;;;22.60;29.14
16613;BME280;8419;52.358;9.752;2023-05-10T02:16:48;100021.00;;;22.64;29.13
16613;BME280;8419;52.358;9.752;2023-05-10T02:19:39;100020.00;;;22.67;29.15
16613;BME280;8419;52.358;9.752;2023-05-10T02:22:26;100013.00;;;22.71;29.16
16613;BME280;8419;52.358;9.752;2023-05-10T02:25:13;100019.00;;;22.72;29.16
16613;BME280;8419;52.358;9.752;2023-05-10T02:28:02;100011.00;;;22.73;29.19
16613;BME280;8419;52.358;9.752;2023-05-10T02:30:49;100015.00;;;22.73;29.24
16613;BME280;8419;52.358;9.752;2023-05-10T02:33:38;100014.00;;;22.73;29.30
16613;BME280;8419;52.358;9.752;2023-05-10T02:36:26;100012.00;;;22.62;29.50
16613;BME280;8419;52.358;9.752;2023-05-10T02:39:13;100019.00;;;22.76;29.41
16613;BME280;8419;52.358;9.752;2023-05-10T02:42:00;100016.00;;;22.81;29.38
16613;BME280;8419;52.358;9.752;2023-05-10T02:44:48;100008.00;;;22.84;29.39
16613;BME280;8419;52.358;9.752;2023-05-10T02:47:35;100016.00;;;22.77;29.55
16613;BME280;8419;52.358;9.752;2023-05-10T02:50:22;100010.00;;;22.77;29.59
16613;BME280;8419;52.358;9.752;2023-05-10T02:53:14;100007.00;;;22.80;29.61
16613;BME280;8419;52.358;9.752;2023-05-10T02:56:04;100008.00;;;22.76;29.71
16613;BME280;8419;52.358;9.752;2023-05-10T02:58:52;100003.00;;;22.72;29.82
16613;BME280;8419;52.358;9.752;2023-05-10T03:01:38;100003.00;;;22.69;29.90
16613;BME280;8419;52.358;9.752;2023-05-10T03:04:24;100007.00;;;22.72;29.92
16613;BME280;8419;52.358;9.752;2023-05-10T03:07:10;100000.00;;;22.66;30.06
16613;BME280;8419;52.358;9.752;2023-05-10T03:09:56;100005.00;;;22.74;30.04
16613;BME280;8419;52.358;9.752;2023-05-10T03:12:55;100009.00;;;22.80;29.98
16613;BME280;8419;52.358;9.752;2023-05-10T03:15:50;100001.00;;;22.84;30.03
16613;BME280;8419;52.358;9.752;2023-05-10T03:18:44;100002.00;;;22.79;30.18
16613;BME280;8419;52.358;9.752;2023-05-10T03:21:31;100002.00;;;22.85;30.16
16613;BME280;8419;52.358;9.752;2023-05-10T03:24:20;100002.00;;;22.85;30.28
16613;BME280;8419;52.358;9.752;2023-05-10T03:27:06;100004.00;;;22.82;30.40
16613;BME280;8419;52.358;9.752;2023-05-10T03:29:54;100001.00;;;22.68;30.71
16613;BME280;8419;52.358;9.752;2023-05-10T03:32:39;100002.00;;;22.66;30.88
16613;BME280;8419;52.358;9.752;2023-05-10T03:35:25;100004.00;;;22.83;30.71
16613;BME280;8419;52.358;9.752;2023-05-10T03:38:11;100009.00;;;22.83;30.86
16613;BME280;8419;52.358;9.752;2023-05-10T03:40:56;100003.00;;;22.92;30.87
16613;BME280;8419;52.358;9.752;2023-05-10T03:43:42;100001.00;;;22.91;30.98
16613;BME280;8419;52.358;9.752;2023-05-10T03:46:28;100004.00;;;22.85;31.15
16613;BME280;8419;52.358;9.752;2023-05-10T03:49:13;99999.00;;;22.86;31.18
16613;BME280;8419;52.358;9.752;2023-05-10T03:51:58;99999.00;;;22.86;31.32
16613;BME280;8419;52.358;9.752;2023-05-10T03:54:44;100010.00;;;22.85;31.44
16613;BME280;8419;52.358;9.752;2023-05-10T03:57:29;100003.00;;;22.87;31.52
16613;BME280;8419;52.358;9.752;2023-05-10T04:00:16;100011.00;;;22.90;31.56
16613;BME280;8419;52.358;9.752;2023-05-10T04:03:02;100002.00;;;22.88;31.69
16613;BME280;8419;52.358;9.752;2023-05-10T04:05:48;100002.00;;;22.91;31.75
16613;BME280;8419;52.358;9.752;2023-05-10T04:08:33;99997.00;;;22.88;31.83
16613;BME280;8419;52.358;9.752;2023-05-10T04:11:19;100003.00;;;22.92;31.85
16613;BME280;8419;52.358;9.752;2023-05-10T04:14:06;100002.00;;;22.93;31.95
16613;BME280;8419;52.358;9.752;2023-05-10T04:16:53;100006.00;;;22.95;32.04
16613;BME280;8419;52.358;9.752;2023-05-10T04:19:40;100009.00;;;22.92;32.21
16613;BME280;8419;52.358;9.752;2023-05-10T04:22:25;100007.00;;;22.85;32.45
16613;BME280;8419;52.358;9.752;2023-05-10T04:25:13;100010.00;;;22.83;32.61
16613;BME280;8419;52.358;9.752;2023-05-10T04:27:58;100007.00;;;22.88;32.66
16613;BME280;8419;52.358;9.752;2023-05-10T04:30:44;100008.00;;;22.85;32.85
16613;BME280;8419;52.358;9.752;2023-05-10T04:33:30;100018.00;;;22.88;32.92
16613;BME280;8419;52.358;9.752;2023-05-10T04:36:16;100005.00;;;22.85;33.05
16613;BME280;8419;52.358;9.752;2023-05-10T04:39:03;100008.00;;;22.84;33.19
16613;BME280;8419;52.358;9.752;2023-05-10T04:41:49;100007.00;;;22.83;33.27
16613;BME280;8419;52.358;9.752;2023-05-10T04:44:34;100014.00;;;22.87;33.30
16613;BME280;8419;52.358;9.752;2023-05-10T04:47:20;100023.00;;;22.89;33.39
16613;BME280;8419;52.358;9.752;2023-05-10T04:50:12;100013.00;;;22.88;33.54
16613;BME280;8419;52.358;9.752;2023-05-10T04:52:58;100005.00;;;22.92;33.71
16613;BME280;8419;52.358;9.752;2023-05-10T04:55:44;100007.00;;;22.91;33.79
16613;BME280;8419;52.358;9.752;2023-05-10T04:58:30;100023.00;;;22.89;33.94
16613;BME280;8419;52.358;9.752;2023-05-10T05:01:15;100014.00;;;22.92;33.99
16613;BME280;8419;52.358;9.752;2023-05-10T05:04:05;100026.00;;;22.91;34.14
16613;BME280;8419;52.358;9.752;2023-05-10T05:06:51;100032.00;;;22.87;34.39
16613;BME280;8419;52.358;9.752;2023-05-10T05:09:37;100037.00;;;22.88;34.39
16613;BME280;8419;52.358;9.752;2023-05-10T05:12:23;100027.00;;;22.87;34.54
16613;BME280;8419;52.358;9.752;2023-05-10T05:15:11;100035.00;;;22.87;34.70
16613;BME280;8419;52.358;9.752;2023-05-10T05:17:56;100055.00;;;22.88;34.90
16613;BME280;8419;52.358;9.752;2023-05-10T05:20:41;100070.00;;;22.90;35.00
16613;BME280;8419;52.358;9.752;2023-05-10T05:23:27;100072.00;;;22.88;35.12
16613;BME280;8419;52.358;9.752;2023-05-10T05:26:13;100075.00;;;22.80;35.31
16613;BME280;8419;52.358;9.752;2023-05-10T05:29:00;100085.00;;;22.64;35.56
16613;BME280;8419;52.358;9.752;2023-05-10T05:31:46;100078.00;;;22.53;35.81
16613;BME280;8419;52.358;9.752;2023-05-10T05:34:32;100090.00;;;22.47;35.92
16613;BME280;8419;52.358;9.752;2023-05-10T05:37:20;100089.00;;;22.40;36.11
16613;BME280;8419;52.358;9.752;2023-05-10T05:40:12;100098.00;;;22.42;36.18
16613;BME280;8419;52.358;9.752;2023-05-10T05:42:58;100097.00;;;22.40;36.38
16613;BME280;8419;52.358;9.752;2023-05-10T05:45:45;100097.00;;;22.42;36.35
16613;BME280;8419;52.358;9.752;2023-05-10T05:48:31;100095.00;;;22.44;36.50
16613;BME280;8419;52.358;9.752;2023-05-10T05:51:18;100096.00;;;22.46;36.63
16613;BME280;8419;52.358;9.752;2023-05-10T05:54:03;100096.00;;;22.59;36.57
16613;BME280;8419;52.358;9.752;2023-05-10T05:56:49;100102.00;;;22.59;36.61
16613;BME280;8419;52.358;9.752;2023-05-10T05:59:34;100095.00;;;22.59;36.66
16613;BME280;8419;52.358;9.752;2023-05-10T06:02:19;100097.00;;;22.60;36.84
16613;BME280;8419;52.358;9.752;2023-05-10T06:05:09;100106.00;;;22.62;36.96
16613;BME280;8419;52.358;9.752;2023-05-10T06:07:58;100108.00;;;22.69;36.96
16613;BME280;8419;52.358;9.752;2023-05-10T06:10:45;100102.00;;;22.71;36.88
16613;BME280;8419;52.358;9.752;2023-05-10T06:13:30;100106.00;;;22.75;36.97
16613;BME280;8419;52.358;9.752;2023-05-10T06:16:18;100111.00;;;22.79;37.05
16613;BME280;8419;52.358;9.752;2023-05-10T06:19:03;100108.00;;;22.81;37.02
16613;BME280;8419;52.358;9.752;2023-05-10T06:21:49;100111.00;;;22.81;37.18
16613;BME280;8419;52.358;9.752;2023-05-10T06:24:34;100115.00;;;22.83;37.32
16613;BME280;8419;52.358;9.752;2023-05-10T06:27:20;100122.00;;;22.89;37.40
16613;BME280;8419;52.358;9.752;2023-05-10T06:30:11;100121.00;;;22.87;37.59
16613;BME280;8419;52.358;9.752;2023-05-10T06:33:00;100118.00;;;22.85;37.88
16613;BME280;8419;52.358;9.752;2023-05-10T06:35:46;100121.00;;;22.92;37.91
16613;BME280;8419;52.358;9.752;2023-05-10T06:38:33;100128.00;;;22.96;37.98
16613;BME280;8419;52.358;9.752;2023-05-10T06:41:21;100136.00;;;22.97;38.18
16613;BME280;8419;52.358;9.752;2023-05-10T06:44:06;100134.00;;;23.03;38.22
16613;BME280;8419;52.358;9.752;2023-05-10T06:46:52;100133.00;;;23.09;38.32
16613;BME280;8419;52.358;9.752;2023-05-10T06:49:38;100136.00;;;23.14;38.38
16613;BME280;8419;52.358;9.752;2023-05-10T06:52:24;100138.00;;;23.18;38.49
16613;BME280;8419;52.358;9.752;2023-05-10T06:55:10;100141.00;;;23.12;38.77
16613;BME280;8419;52.358;9.752;2023-05-10T06:57:56;100151.00;;;23.26;38.60
16613;BME280;8419;52.358;9.752;2023-05-10T07:00:42;100150.00;;;23.29;38.57
16613;BME280;8419;52.358;9.752;2023-05-10T07:03:30;100149.00;;;23.34;38.54
16613;BME280;8419;52.358;9.752;2023-05-10T07:06:17;100147.00;;;23.30;38.60
16613;BME280;8419;52.358;9.752;2023-05-10T07:09:03;100156.00;;;23.29;38.67
16613;BME280;8419;52.358;9.752;2023-05-10T07:11:48;100165.00;;;23.34;38.68
16613;BME280;8419;52.358;9.752;2023-05-10T07:14:37;100164.00;;;23.38;38.75
16613;BME280;8419;52.358;9.752;2023-05-10T07:17:23;100160.00;;;23.43;38.79
16613;BME280;8419;52.358;9.752;2023-05-10T07:20:10;100155.00;;;23.48;38.73
16613;BME280;8419;52.358;9.752;2023-05-10T07:22:56;100169.00;;;23.44;38.81
16613;BME280;8419;52.358;9.752;2023-05-10T07:25:41;100172.00;;;23.39;38.92
16613;BME280;8419;52.358;9.752;2023-05-10T07:28:27;100176.00;;;23.34;39.08
16613;BME280;8419;52.358;9.752;2023-05-10T07:31:13;100169.00;;;23.30;39.19
16613;BME280;8419;52.358;9.752;2023-05-10T07:33:59;100174.00;;;23.27;39.32
16613;BME280;8419;52.358;9.752;2023-05-10T07:36:45;100176.00;;;23.25;39.45
16613;BME280;8419;52.358;9.752;2023-05-10T07:39:31;100187.00;;;23.20;39.54
16613;BME280;8419;52.358;9.752;2023-05-10T07:42:19;100187.00;;;23.20;39.60
16613;BME280;8419;52.358;9.752;2023-05-10T07:45:09;100184.00;;;23.25;39.58
16613;BME280;8419;52.358;9.752;2023-05-10T07:47:54;100193.00;;;23.22;39.76
16613;BME280;8419;52.358;9.752;2023-05-10T07:50:40;100195.00;;;23.19;39.73
16613;BME280;8419;52.358;9.752;2023-05-10T07:53:26;100209.00;;;23.09;40.00
16613;BME280;8419;52.358;9.752;2023-05-10T07:56:24;100207.00;;;23.02;40.16
16613;BME280;8419;52.358;9.752;2023-05-10T07:59:15;100210.00;;;22.93;40.35
16613;BME280;8419;52.358;9.752;2023-05-10T08:02:01;100205.00;;;22.90;40.51
16613;BME280;8419;52.358;9.752;2023-05-10T08:04:47;100210.00;;;22.90;40.57
16613;BME280;8419;52.358;9.752;2023-05-10T08:07:33;100215.00;;;22.90;40.69
16613;BME280;8419;52.358;9.752;2023-05-10T08:10:19;100221.00;;;22.94;40.72
16613;BME280;8419;52.358;9.752;2023-05-10T08:13:06;100232.00;;;22.84;41.14
16613;BME280;8419;52.358;9.752;2023-05-10T08:15:52;100232.00;;;22.87;41.18
16613;BME280;8419;52.358;9.752;2023-05-10T08:18:38;100238.00;;;22.94;41.23
16613;BME280;8419;52.358;9.752;2023-05-10T08:21:24;100245.00;;;22.99;41.51
16613;BME280;8419;52.358;9.752;2023-05-10T08:24:12;100247.00;;;22.93;42.00
16613;BME280;8419;52.358;9.752;2023-05-10T08:26:58;100238.00;;;22.96;41.94
16613;BME280;8419;52.358;9.752;2023-05-10T08:29:45;100250.00;;;23.02;42.12
16613;BME280;8419;52.358;9.752;2023-05-10T08:32:30;100255.00;;;23.05;42.12
16613;BME280;8419;52.358;9.752;2023-05-10T08:35:16;100259.00;;;22.99;42.55
16613;BME280;8419;52.358;9.752;2023-05-10T08:38:02;100255.00;;;22.88;43.08
16613;BME280;8419;52.358;9.752;2023-05-10T08:40:49;100265.00;;;22.72;43.68
16613;BME280;8419;52.358;9.752;2023-05-10T08:43:45;100260.00;;;22.68;43.72
16613;BME280;8419;52.358;9.752;2023-05-10T08:46:33;100260.00;;;22.67;44.01
16613;BME280;8419;52.358;9.752;2023-05-10T08:49:20;100264.00;;;22.68;44.20
16613;BME280;8419;52.358;9.752;2023-05-10T08:52:07;100267.00;;;22.70;44.30
16613;BME280;8419;52.358;9.752;2023-05-10T08:54:53;100268.00;;;22.78;44.28
16613;BME280;8419;52.358;9.752;2023-05-10T08:57:39;100265.00;;;22.89;44.24
16613;BME280;8419;52.358;9.752;2023-05-10T09:00:25;100280.00;;;22.95;44.14
16613;BME280;8419;52.358;9.752;2023-05-10T09:03:12;100288.00;;;23.02;44.20
16613;BME280;8419;52.358;9.752;2023-05-10T09:05:59;100289.00;;;23.09;44.06
16613;BME280;8419;52.358;9.752;2023-05-10T09:08:46;100292.00;;;23.24;43.96
16613;BME280;8419;52.358;9.752;2023-05-10T09:11:32;100301.00;;;23.29;44.02
16613;BME280;8419;52.358;9.752;2023-05-10T09:14:19;100305.00;;;23.38;43.81
16613;BME280;8419;52.358;9.752;2023-05-10T09:17:05;100306.00;;;23.36;43.78
16613;BME280;8419;52.358;9.752;2023-05-10T09:19:58;100305.00;;;23.34;43.78
16613;BME280;8419;52.358;9.752;2023-05-10T09:22:44;100311.00;;;23.31;43.74
16613;BME280;8419;52.358;9.752;2023-05-10T09:25:30;100318.00;;;23.26;43.76
16613;BME280;8419;52.358;9.752;2023-05-10T09:28:18;100322.00;;;23.24;43.78
16613;BME280;8419;52.358;9.752;2023-05-10T09:31:04;100318.00;;;23.26;43.73
16613;BME280;8419;52.358;9.752;2023-05-10T09:33:53;100325.00;;;23.30;43.78
16613;BME280;8419;52.358;9.752;2023-05-10T09:36:52;100325.00;;;23.60;43.31
16613;BME280;8419;52.358;9.752;2023-05-10T09:39:38;100325.00;;;23.69;43.25
16613;BME280;8419;52.358;9.752;2023-05-10T09:42:24;100328.00;;;23.87;42.96
16613;BME280;8419;52.358;9.752;2023-05-10T09:45:10;100334.00;;;24.04;42.76
16613;BME280;8419;52.358;9.752;2023-05-10T09:47:56;100329.00;;;24.24;42.51
16613;BME280;8419;52.358;9.752;2023-05-10T09:50:42;100340.00;;;24.27;42.49
16613;BME280;8419;52.358;9.752;2023-05-10T09:53:28;100338.00;;;24.24;42.47
16613;BME280;8419;52.358;9.752;2023-05-10T09:56:13;100344.00;;;24.25;42.52
16613;BME280;8419;52.358;9.752;2023-05-10T09:59:20;100351.00;;;24.42;42.39
16613;BME280;8419;52.358;9.752;2023-05-10T10:02:06;100358.00;;;24.47;42.18
16613;BME280;8419;52.358;9.752;2023-05-10T10:04:53;100354.00;;;24.51;42.12
16613;BME280;8419;52.358;9.752;2023-05-10T10:07:40;100358.00;;;24.51;42.04
16613;BME280;8419;52.358;9.752;2023-05-10T10:10:34;100358.00;;;24.47;42.02
16613;BME280;8419;52.358;9.752;2023-05-10T10:13:20;100373.00;;;24.53;41.87
16613;BME280;8419;52.358;9.752;2023-05-10T10:16:06;100368.00;;;24.55;41.79
16613;BME280;8419;52.358;9.752;2023-05-10T10:18:53;100365.00;;;24.50;41.96
16613;BME280;8419;52.358;9.752;2023-05-10T10:21:39;100365.00;;;24.66;41.74
16613;BME280;8419;52.358;9.752;2023-05-10T10:24:25;100369.00;;;24.75;41.58
16613;BME280;8419;52.358;9.752;2023-05-10T10:27:21;100372.00;;;24.85;41.47
16613;BME280;8419;52.358;9.752;2023-05-10T10:30:18;100368.00;;;25.01;41.25
16613;BME280;8419;52.358;9.752;2023-05-10T10:33:27;100372.00;;;25.08;41.14
16613;BME280;8419;52.358;9.752;2023-05-10T10:36:15;100375.00;;;25.31;40.89
16613;BME280;8419;52.358;9.752;2023-05-10T10:39:01;100368.00;;;25.48;40.62
16613;BME280;8419;52.358;9.752;2023-05-10T10:41:55;100364.00;;;25.65;40.31
16613;BME280;8419;52.358;9.752;2023-05-10T10:44:44;100367.00;;;25.73;40.19
16613;BME280;8419;52.358;9.752;2023-05-10T10:47:30;100373.00;;;26.00;39.91
16613;BME280;8419;52.358;9.752;2023-05-10T10:50:18;100367.00;;;26.15;39.60
16613;BME280;8419;52.358;9.752;2023-05-10T10:53:15;100371.00;;;26.40;39.29
16613;BME280;8419;52.358;9.752;2023-05-10T10:56:08;100368.00;;;26.54;39.00
16613;BME280;8419;52.358;9.752;2023-05-10T10:59:00;100373.00;;;26.75;38.71
16613;BME280;8419;52.358;9.752;2023-05-10T11:01:52;100366.00;;;26.97;38.48
16613;BME280;8419;52.358;9.752;2023-05-10T11:04:44;100365.00;;;27.24;38.14
16613;BME280;8419;52.358;9.752;2023-05-10T11:07:31;100376.00;;;27.49;37.83
16613;BME280;8419;52.358;9.752;2023-05-10T11:10:20;100363.00;;;27.61;37.60
16613;BME280;8419;52.358;9.752;2023-05-10T11:13:08;100368.00;;;27.72;37.39
16613;BME280;8419;52.358;9.752;2023-05-10T11:15:55;100367.00;;;27.69;37.32
16613;BME280;8419;52.358;9.752;2023-05-10T11:18:53;100372.00;;;27.76;37.24
16613;BME280;8419;52.358;9.752;2023-05-10T11:21:45;100382.00;;;27.95;36.86
16613;BME280;8419;52.358;9.752;2023-05-10T11:24:31;100373.00;;;28.21;36.43
16613;BME280;8419;52.358;9.752;2023-05-10T11:27:20;100383.00;;;28.41;35.92
16613;BME280;8419;52.358;9.752;2023-05-10T11:30:08;100377.00;;;28.21;35.54
16613;BME280;8419;52.358;9.752;2023-05-10T11:32:57;100384.00;;;28.03;35.58
16613;BME280;8419;52.358;9.752;2023-05-10T11:35:42;100380.00;;;27.59;36.34
16613;BME280;8419;52.358;9.752;2023-05-10T11:38:27;100380.00;;;27.76;36.00
16613;BME280;8419;52.358;9.752;2023-05-10T11:41:16;100382.00;;;27.77;36.12
16613;BME280;8419;52.358;9.752;2023-05-10T11:44:04;100385.00;;;28.15;35.69
16613;BME280;8419;52.358;9.752;2023-05-10T11:46:50;100374.00;;;28.46;35.07
16613;BME280;8419;52.358;9.752;2023-05-10T11:49:35;100373.00;;;28.51;34.58
16613;BME280;8419;52.358;9.752;2023-05-10T11:52:21;100378.00;;;28.87;33.75
16613;BME280;8419;52.358;9.752;2023-05-10T11:55:07;100389.00;;;28.60;34.10
16613;BME280;8419;52.358;9.752;2023-05-10T11:57:54;100381.00;;;28.57;34.19
16613;BME280;8419;52.358;9.752;2023-05-10T12:00:43;100390.00;;;28.67;33.91
16613;BME280;8419;52.358;9.752;2023-05-10T12:03:30;100384.00;;;28.73;33.65
16613;BME280;8419;52.358;9.752;2023-05-10T12:06:17;100386.00;;;29.28;32.89
16613;BME280;8419;52.358;9.752;2023-05-10T12:09:07;100380.00;;;29.51;32.29
16613;BME280;8419;52.358;9.752;2023-05-10T12:11:59;100383.00;;;29.86;32.09
16613;BME280;8419;52.358;9.752;2023-05-10T12:14:50;100386.00;;;30.39;31.36
16613;BME280;8419;52.358;9.752;2023-05-10T12:17:37;100380.00;;;30.73;30.99
16613;BME280;8419;52.358;9.752;2023-05-10T12:20:28;100379.00;;;30.82;30.46
16613;BME280;8419;52.358;9.752;2023-05-10T12:23:13;100387.00;;;30.28;30.98
16613;BME280;8419;52.358;9.752;2023-05-10T12:26:03;100393.00;;;29.39;31.85
16613;BME280;8419;52.358;9.752;2023-05-10T12:28:49;100387.00;;;28.98;32.37
16613;BME280;8419;52.358;9.752;2023-05-10T12:31:49;100393.00;;;29.00;32.30
16613;BME280;8419;52.358;9.752;2023-05-10T12:34:36;100396.00;;;29.13;32.27
16613;BME280;8419;52.358;9.752;2023-05-10T12:37:28;100393.00;;;29.52;31.84
16613;BME280;8419;52.358;9.752;2023-05-10T12:40:14;100396.00;;;30.02;31.22
16613;BME280;8419;52.358;9.752;2023-05-10T12:43:00;100403.00;;;30.39;30.85
16613;BME280;8419;52.358;9.752;2023-05-10T12:45:47;100400.00;;;30.82;30.17
16613;BME280;8419;52.358;9.752;2023-05-10T12:48:34;100406.00;;;30.94;30.13
16613;BME280;8419;52.358;9.752;2023-05-10T12:51:22;100406.00;;;31.01;30.18
16613;BME280;8419;52.358;9.752;2023-05-10T12:54:09;100410.00;;;30.75;30.45
16613;BME280;8419;52.358;9.752;2023-05-10T12:56:55;100417.00;;;30.55;30.81
16613;BME280;8419;52.358;9.752;2023-05-10T12:59:43;100414.00;;;30.70;30.58
16613;BME280;8419;52.358;9.752;2023-05-10T13:02:29;100421.00;;;31.35;29.80
16613;BME280;8419;52.358;9.752;2023-05-10T13:05:17;100419.00;;;31.83;29.16
16613;BME280;8419;52.358;9.752;2023-05-10T13:08:04;100434.00;;;31.62;29.14
16613;BME280;8419;52.358;9.752;2023-05-10T13:10:51;100428.00;;;31.34;29.69
16613;BME280;8419;52.358;9.752;2023-05-10T13:13:37;100425.00;;;31.10;29.99
16613;BME280;8419;52.358;9.752;2023-05-10T13:16:24;100418.00;;;30.80;30.31
16613;BME280;8419;52.358;9.752;2023-05-10T13:19:09;100420.00;;;30.53;30.61
16613;BME280;8419;52.358;9.752;2023-05-10T13:21:56;100424.00;;;30.34;30.82
16613;BME280;8419;52.358;9.752;2023-05-10T13:24:43;100420.00;;;30.22;30.85
16613;BME280;8419;52.358;9.752;2023-05-10T13:27:28;100418.00;;;30.20;30.84
16613;BME280;8419;52.358;9.752;2023-05-10T13:30:22;100420.00;;;30.30;30.64
16613;BME280;8419;52.358;9.752;2023-05-10T13:33:08;100424.00;;;30.74;30.27
16613;BME280;8419;52.358;9.752;2023-05-10T13:35:54;100436.00;;;31.37;29.52
16613;BME280;8419;52.358;9.752;2023-05-10T13:38:40;100422.00;;;31.73;29.17
16613;BME280;8419;52.358;9.752;2023-05-10T13:41:25;100428.00;;;31.55;29.63
16613;BME280;8419;52.358;9.752;2023-05-10T13:44:13;100417.00;;;31.73;29.42
16613;BME280;8419;52.358;9.752;2023-05-10T13:46:59;100423.00;;;31.22;30.00
16613;BME280;8419;52.358;9.752;2023-05-10T13:49:49;100417.00;;;30.89;30.40
16613;BME280;8419;52.358;9.752;2023-05-10T13:52:34;100425.00;;;30.69;30.70
16613;BME280;8419;52.358;9.752;2023-05-10T13:55:21;100418.00;;;30.40;31.03
16613;BME280;8419;52.358;9.752;2023-05-10T13:58:06;100423.00;;;30.27;31.22
16613;BME280;8419;52.358;9.752;2023-05-10T14:00:52;100419.00;;;30.29;31.22
16613;BME280;8419;52.358;9.752;2023-05-10T14:03:37;100415.00;;;30.25;31.51
16613;BME280;8419;52.358;9.752;2023-05-10T14:06:23;100423.00;;;30.14;31.64
16613;BME280;8419;52.358;9.752;2023-05-10T14:09:08;100423.00;;;30.14;31.51
16613;BME280;8419;52.358;9.752;2023-05-10T14:11:56;100417.00;;;30.11;31.53
16613;BME280;8419;52.358;9.752;2023-05-10T14:14:41;100421.00;;;30.19;31.30
16613;BME280;8419;52.358;9.752;2023-05-10T14:17:28;100419.00;;;29.68;31.95
16613;BME280;8419;52.358;9.752;2023-05-10T14:20:14;100419.00;;;29.55;32.22
16613;BME280;8419;52.358;9.752;2023-05-10T14:23:00;100421.00;;;29.50;32.12
16613;BME280;8419;52.358;9.752;2023-05-10T14:25:45;100425.00;;;29.27;32.45
16613;BME280;8419;52.358;9.752;2023-05-10T14:28:30;100430.00;;;28.76;33.18
16613;BME280;8419;52.358;9.752;2023-05-10T14:31:16;100432.00;;;28.87;32.84
16613;BME280;8419;52.358;9.752;2023-05-10T14:34:01;100434.00;;;28.31;33.42
16613;BME280;8419;52.358;9.752;2023-05-10T14:36:46;100430.00;;;28.07;33.64
16613;BME280;8419;52.358;9.752;2023-05-10T14:39:32;100431.00;;;28.02;33.63
16613;BME280;8419;52.358;9.752;2023-05-10T14:42:19;100431.00;;;28.08;33.49
16613;BME280;8419;52.358;9.752;2023-05-10T14:45:07;100434.00;;;28.03;33.48
16613;BME280;8419;52.358;9.752;2023-05-10T14:47:53;100433.00;;;28.04;33.43
16613;BME280;8419;52.358;9.752;2023-05-10T14:50:38;100435.00;;;28.10;33.32